Main page
METAR-TAF:

METAR-TAF

Airports :

Xi'an Xianyang International Airport

Xi'an, China

latitude: 34-26N, longitude: 108-45E, elevation: 479 m

Current weather observation

The report was made 24 minutes ago, at 20:00 UTC
Wind 4 kt from the Northeast
Temperature 23°C
Humidity 83%
Pressure 1005 hPa
Visibility 10 km or more
no clouds below 1500 m and no cumulonimbus

METAR: ZLXY 182000Z 04002MPS CAVOK 23/20 Q1005 NOSIG

Time: 04:24 (20:24 UTC)

Forecast

The report was made 5 hours and 14 minutes ago, at 15:10 UTC
Forecast valid from 18 at 18 UTC to 19 at 18 UTC
Wind 6 kt from the East/Northeast
Visibility: 5000 m
haze

TAF: ZLXY 181510Z 1818/1918 06003MPS 5000 HZ NSC TX35/1908Z TN22/1821Z

Weather observations and forecasts of more than 4000 airports (METAR and TAF reports).

The available stations are represented by yellow and red dots on the map.

Hover mouse over dot to see the name of the station.

Then click to see weather observations and forecasts.

To change the map : click on the green buttons with a black cross to zoom in, on the green button with a dash to zoom out, or on the green arrows for adjacent maps.


METAR-TAF: